createdAt,value
2023-09-20T00:00:00.248Z,13.29
2023-09-20T00:02:27.626Z,13.32
2023-09-20T00:04:55.026Z,13.33
2023-09-20T00:07:22.338Z,13.36
2023-09-20T00:09:51.033Z,13.39
2023-09-20T00:12:18.335Z,13.40
2023-09-20T00:14:45.637Z,13.47
2023-09-20T00:17:12.934Z,13.48
2023-09-20T00:19:40.221Z,13.48
2023-09-20T00:22:07.494Z,13.45
2023-09-20T00:24:34.815Z,13.44
2023-09-20T00:27:03.915Z,13.39
2023-09-20T00:29:31.251Z,13.38
2023-09-20T00:31:58.550Z,13.34
2023-09-20T00:34:25.933Z,13.30
2023-09-20T00:36:53.190Z,13.33
2023-09-20T00:39:20.424Z,13.32
2023-09-20T00:41:47.669Z,13.32
2023-09-20T00:44:16.409Z,13.33
2023-09-20T00:46:43.817Z,13.33
2023-09-20T00:49:11.324Z,13.29
2023-09-20T00:51:38.579Z,13.29
2023-09-20T00:54:06.455Z,13.28
2023-09-20T00:56:34.569Z,13.29
2023-09-20T00:59:02.014Z,13.27
2023-09-20T01:01:30.746Z,13.30
2023-09-20T01:03:58.394Z,13.33
2023-09-20T01:06:26.081Z,13.35
2023-09-20T01:08:53.350Z,13.34
2023-09-20T01:11:21.537Z,13.33
2023-09-20T01:13:49.009Z,13.35
2023-09-20T01:16:16.292Z,13.36
2023-09-20T01:18:45.263Z,13.38
2023-09-20T01:21:12.814Z,13.38
2023-09-20T01:23:41.462Z,13.42
2023-09-20T01:26:09.080Z,13.42
2023-09-20T01:28:36.540Z,13.44
2023-09-20T01:31:03.950Z,13.48
2023-09-20T01:33:31.708Z,13.48
2023-09-20T01:35:59.121Z,13.50
2023-09-20T01:38:26.648Z,13.53
2023-09-20T01:40:55.308Z,13.54
2023-09-20T01:43:22.795Z,13.57
2023-09-20T01:45:50.062Z,13.53
2023-09-20T01:48:17.759Z,13.52
2023-09-20T01:50:45.199Z,13.51
2023-09-20T01:53:12.921Z,13.53
2023-09-20T01:55:40.380Z,13.52
2023-09-20T01:58:09.048Z,13.52
2023-09-20T02:00:36.512Z,13.52
2023-09-20T02:03:05.607Z,13.42
2023-09-20T02:05:33.014Z,13.43
2023-09-20T02:08:01.159Z,13.36
2023-09-20T02:10:28.471Z,13.33
2023-09-20T02:12:57.084Z,13.26
2023-09-20T02:15:26.746Z,13.24
2023-09-20T02:17:54.598Z,13.17
2023-09-20T02:20:24.306Z,13.16
2023-09-20T02:22:54.004Z,13.09
2023-09-20T02:25:22.413Z,13.06
2023-09-20T02:27:52.403Z,13.04
2023-09-20T02:30:20.906Z,13.02
2023-09-20T02:32:50.426Z,12.99
2023-09-20T02:35:17.857Z,12.97
2023-09-20T02:37:45.212Z,12.97
2023-09-20T02:40:12.546Z,12.97
2023-09-20T02:42:44.344Z,13.00
2023-09-20T02:45:12.446Z,13.04
2023-09-20T02:47:40.838Z,13.10
2023-09-20T02:50:10.808Z,13.13
2023-09-20T02:52:38.059Z,13.16
2023-09-20T02:55:06.471Z,13.20
2023-09-20T02:57:34.116Z,13.22
2023-09-20T03:00:01.473Z,13.19
2023-09-20T03:02:29.143Z,13.22
2023-09-20T03:04:56.507Z,13.24
2023-09-20T03:07:25.166Z,13.24
2023-09-20T03:09:52.432Z,13.27
2023-09-20T03:12:19.671Z,13.29
2023-09-20T03:14:46.946Z,13.30
2023-09-20T03:17:14.198Z,13.34
2023-09-20T03:19:41.621Z,13.31
2023-09-20T03:22:08.964Z,13.30
2023-09-20T03:24:37.626Z,13.30
2023-09-20T03:27:06.102Z,13.29
2023-09-20T03:29:33.446Z,13.29
2023-09-20T03:32:00.880Z,13.29
2023-09-20T03:34:28.262Z,13.26
2023-09-20T03:36:55.574Z,13.29
2023-09-20T03:39:22.934Z,13.26
2023-09-20T03:41:51.673Z,13.25
2023-09-20T03:44:19.334Z,13.24
2023-09-20T03:46:46.594Z,13.24
2023-09-20T03:49:13.919Z,13.23
2023-09-20T03:51:41.293Z,13.21
2023-09-20T03:54:08.545Z,13.19
2023-09-20T03:56:36.351Z,13.16
2023-09-20T03:59:05.262Z,13.16
2023-09-20T04:01:34.196Z,13.14
2023-09-20T04:04:03.365Z,13.14
2023-09-20T04:06:30.690Z,13.13
2023-09-20T04:08:57.952Z,13.12
2023-09-20T04:11:25.324Z,13.14
2023-09-20T04:13:52.592Z,13.17
2023-09-20T04:16:21.268Z,13.14
2023-09-20T04:18:48.552Z,13.17
2023-09-20T04:21:15.899Z,13.16
2023-09-20T04:23:43.310Z,13.17
2023-09-20T04:26:10.698Z,13.15
2023-09-20T04:28:38.426Z,13.16
2023-09-20T04:31:05.682Z,13.17
2023-09-20T04:33:34.570Z,13.19
2023-09-20T04:36:02.110Z,13.19
2023-09-20T04:38:30.364Z,13.21
2023-09-20T04:40:58.128Z,13.21
2023-09-20T04:43:25.911Z,13.22
2023-09-20T04:45:53.436Z,13.22
2023-09-20T04:48:20.889Z,13.22
2023-09-20T04:50:51.001Z,13.21
2023-09-20T04:53:18.274Z,13.22
2023-09-20T04:55:45.659Z,13.24
2023-09-20T04:58:12.923Z,13.28
2023-09-20T05:00:42.475Z,13.27
2023-09-20T05:03:12.212Z,13.29
2023-09-20T05:05:39.679Z,13.29
2023-09-20T05:08:08.812Z,13.29
2023-09-20T05:10:36.311Z,13.23
2023-09-20T05:13:06.333Z,13.24
2023-09-20T05:15:33.890Z,13.26
2023-09-20T05:18:02.046Z,13.25
2023-09-20T05:20:30.567Z,13.24
2023-09-20T05:22:57.985Z,13.26
2023-09-20T05:25:26.673Z,13.24
2023-09-20T05:27:53.978Z,13.29
2023-09-20T05:30:21.422Z,13.32
2023-09-20T05:32:49.129Z,13.34
2023-09-20T05:35:16.759Z,13.35
2023-09-20T05:37:44.169Z,13.30
2023-09-20T05:40:11.693Z,13.37
2023-09-20T05:42:40.341Z,13.41
2023-09-20T05:45:08.818Z,13.47
2023-09-20T05:47:36.179Z,13.49
2023-09-20T05:50:04.078Z,13.52
2023-09-20T05:52:31.414Z,13.52
2023-09-20T05:54:58.641Z,13.51
2023-09-20T05:57:26.766Z,13.51
2023-09-20T05:59:56.609Z,13.52
2023-09-20T06:02:24.957Z,13.51
2023-09-20T06:04:52.221Z,13.49
2023-09-20T06:07:19.503Z,13.46
2023-09-20T06:09:47.052Z,13.49
2023-09-20T06:12:14.301Z,13.51
2023-09-20T06:17:28.290Z,13.60
2023-09-20T06:19:55.603Z,13.69
2023-09-20T06:22:22.904Z,13.77
2023-09-20T06:24:50.298Z,13.92
2023-09-20T06:27:17.600Z,14.00
2023-09-20T06:29:44.863Z,14.03
2023-09-20T06:32:12.435Z,14.06
2023-09-20T06:34:56.791Z,14.18
2023-09-20T06:37:26.355Z,14.27
2023-09-20T06:39:53.644Z,14.36
2023-09-20T06:42:20.900Z,14.50
2023-09-20T06:44:48.235Z,14.62
2023-09-20T06:47:15.492Z,14.76
2023-09-20T06:49:44.139Z,14.86
2023-09-20T06:52:11.405Z,14.93
2023-09-20T06:54:38.750Z,15.02
2023-09-20T06:57:06.797Z,15.04
2023-09-20T06:59:34.887Z,15.10
2023-09-20T07:02:02.342Z,15.15
2023-09-20T07:10:01.962Z,15.13
2023-09-20T07:12:29.270Z,15.16
2023-09-20T07:14:56.660Z,15.15
2023-09-20T07:17:24.068Z,15.27
2023-09-20T07:19:52.800Z,15.30
2023-09-20T07:22:20.136Z,15.35
2023-09-20T07:24:47.372Z,15.40
2023-09-20T07:27:16.188Z,15.41
2023-09-20T07:29:43.484Z,15.45
2023-09-20T07:32:10.813Z,15.51
2023-09-20T07:34:38.064Z,15.58
2023-09-20T07:37:05.385Z,15.66
2023-09-20T07:39:32.626Z,15.71
2023-09-20T07:41:59.898Z,15.75
2023-09-20T07:44:29.822Z,15.89
2023-09-20T07:46:57.081Z,16.01
2023-09-20T07:49:24.404Z,16.14
2023-09-20T07:51:51.728Z,16.27
2023-09-20T07:54:18.992Z,16.44
2023-09-20T07:56:46.421Z,16.74
2023-09-20T07:59:13.828Z,17.03
2023-09-20T08:01:43.312Z,17.22
2023-09-20T08:04:10.731Z,17.52
2023-09-20T08:06:38.788Z,17.72
2023-09-20T08:09:06.604Z,17.82
2023-09-20T08:11:34.534Z,17.75
2023-09-20T08:14:03.516Z,17.77
2023-09-20T08:16:46.895Z,17.80
2023-09-20T08:19:20.057Z,18.18
2023-09-20T08:21:47.924Z,18.54
2023-09-20T08:24:15.331Z,18.90
2023-09-20T08:26:42.605Z,19.20
2023-09-20T08:29:09.937Z,19.33
2023-09-20T08:31:37.373Z,19.41
2023-09-20T08:34:04.766Z,19.72
2023-09-20T08:36:33.633Z,19.83
2023-09-20T08:39:00.884Z,19.74
2023-09-20T08:41:29.673Z,19.86
2023-09-20T08:43:57.218Z,19.87
2023-09-20T08:46:25.107Z,19.80
2023-09-20T08:48:53.842Z,19.75
2023-09-20T08:51:22.888Z,19.71
2023-09-20T08:53:53.382Z,19.73
2023-09-20T08:56:21.181Z,19.70
2023-09-20T08:58:50.347Z,19.73
2023-09-20T09:01:17.828Z,19.70
2023-09-20T09:03:45.428Z,19.67
2023-09-20T09:06:13.474Z,19.62
2023-09-20T09:08:40.982Z,19.81
2023-09-20T09:11:10.028Z,19.99
2023-09-20T09:13:37.552Z,20.16
2023-09-20T09:16:07.636Z,20.34
2023-09-20T09:18:35.069Z,20.67
2023-09-20T09:21:02.461Z,21.14
2023-09-20T09:23:34.010Z,21.33
2023-09-20T09:26:01.093Z,21.43
2023-09-20T09:28:30.697Z,21.29
2023-09-20T09:30:59.006Z,21.45
2023-09-20T09:33:26.427Z,21.70
2023-09-20T09:35:53.826Z,21.75
2023-09-20T09:38:21.985Z,21.90
2023-09-20T09:40:53.268Z,21.89
2023-09-20T09:43:20.862Z,21.88
2023-09-20T09:45:49.851Z,21.96
2023-09-20T09:48:17.563Z,21.95
2023-09-20T09:50:46.191Z,21.99
2023-09-20T09:53:14.941Z,22.05
2023-09-20T09:55:43.597Z,21.99
2023-09-20T09:58:11.224Z,22.25
2023-09-20T10:00:41.108Z,22.47
2023-09-20T10:03:19.287Z,22.49
2023-09-20T10:05:47.991Z,22.48
2023-09-20T10:08:19.285Z,22.33
2023-09-20T10:10:46.584Z,22.31
2023-09-20T10:13:14.859Z,22.53
2023-09-20T10:15:42.863Z,22.49
2023-09-20T10:18:12.407Z,22.39
2023-09-20T10:20:56.735Z,22.34
2023-09-20T10:23:23.997Z,22.17
2023-09-20T10:25:51.323Z,22.26
2023-09-20T10:28:18.577Z,22.59
2023-09-20T10:30:59.001Z,22.89
2023-09-20T10:33:40.747Z,22.81
2023-09-20T10:36:08.140Z,23.06
2023-09-20T10:38:35.612Z,23.46
2023-09-20T10:41:03.673Z,23.51
2023-09-20T10:43:52.401Z,23.64
2023-09-20T10:46:20.775Z,23.68
2023-09-20T10:48:51.383Z,23.53
2023-09-20T10:51:41.051Z,23.46
2023-09-20T10:54:22.097Z,23.62
2023-09-20T10:57:00.495Z,23.68
2023-09-20T10:59:28.166Z,23.62
2023-09-20T11:01:57.000Z,23.52
2023-09-20T11:04:26.512Z,23.85
2023-09-20T11:06:55.798Z,24.21
2023-09-20T11:09:23.369Z,24.21
2023-09-20T11:11:51.194Z,24.38
2023-09-20T11:14:18.516Z,24.38
2023-09-20T11:16:45.972Z,24.60
2023-09-20T11:19:13.998Z,24.88
2023-09-20T11:21:43.474Z,24.91
2023-09-20T11:24:11.288Z,24.77
2023-09-20T11:26:39.226Z,24.81
2023-09-20T11:29:08.059Z,24.83
2023-09-20T11:31:35.629Z,25.02
2023-09-20T11:34:04.373Z,24.91
2023-09-20T11:36:37.327Z,24.94
2023-09-20T11:39:06.708Z,25.16
2023-09-20T11:41:34.497Z,24.97
2023-09-20T11:44:01.880Z,24.91
2023-09-20T11:46:31.608Z,24.80
2023-09-20T11:48:59.910Z,24.73
2023-09-20T11:51:27.247Z,24.39
2023-09-20T11:53:55.824Z,24.48
2023-09-20T11:56:28.171Z,24.25
2023-09-20T11:58:55.460Z,24.67
2023-09-20T12:01:24.552Z,24.75
2023-09-20T12:03:52.033Z,24.55
2023-09-20T12:06:19.525Z,24.48
2023-09-20T12:08:46.859Z,24.62
2023-09-20T12:11:15.625Z,24.85
2023-09-20T12:13:44.421Z,24.99
2023-09-20T12:16:11.656Z,25.14
2023-09-20T12:18:39.002Z,25.12
2023-09-20T12:21:07.032Z,25.36
2023-09-20T12:23:34.437Z,25.43
2023-09-20T12:26:01.810Z,25.33
2023-09-20T12:28:29.094Z,25.42
2023-09-20T12:30:57.875Z,25.25
2023-09-20T12:33:25.375Z,25.19
2023-09-20T12:35:53.376Z,24.85
2023-09-20T12:38:20.672Z,25.13
2023-09-20T12:40:48.097Z,25.34
2023-09-20T12:43:15.830Z,25.55
2023-09-20T12:45:43.319Z,25.12
2023-09-20T12:48:12.401Z,25.21
2023-09-20T12:50:39.831Z,24.76
2023-09-20T12:53:07.199Z,24.78
2023-09-20T12:55:38.357Z,25.03
2023-09-20T12:58:06.319Z,25.25
2023-09-20T13:00:45.566Z,25.58
2023-09-20T13:03:16.406Z,25.37
2023-09-20T13:05:45.284Z,25.42
2023-09-20T13:08:12.967Z,25.41
2023-09-20T13:10:40.271Z,25.49
2023-09-20T13:13:07.735Z,25.53
2023-09-20T13:15:35.740Z,24.96
2023-09-20T13:18:03.669Z,25.06
2023-09-20T13:20:32.485Z,25.09
2023-09-20T13:22:59.863Z,25.14
2023-09-20T13:25:27.158Z,25.02
2023-09-20T13:27:54.508Z,24.98
2023-09-20T13:30:21.841Z,24.92
2023-09-20T13:32:49.197Z,24.95
2023-09-20T13:35:17.154Z,24.47
2023-09-20T13:37:46.505Z,24.48
2023-09-20T13:40:14.384Z,24.46
2023-09-20T13:42:41.812Z,24.40
2023-09-20T13:45:10.592Z,24.52
2023-09-20T13:47:38.150Z,24.62
2023-09-20T13:50:06.674Z,24.54
2023-09-20T13:52:34.088Z,24.48
2023-09-20T13:55:02.940Z,24.58
2023-09-20T13:57:30.205Z,24.49
2023-09-20T13:59:57.727Z,24.63
2023-09-20T14:02:24.980Z,24.39
2023-09-20T14:04:52.225Z,24.51
2023-09-20T14:07:19.481Z,24.54
2023-09-20T14:09:46.735Z,24.31
2023-09-20T14:12:15.477Z,24.55
2023-09-20T14:14:42.830Z,24.24
2023-09-20T14:17:10.150Z,24.24
2023-09-20T14:19:37.457Z,24.07
2023-09-20T14:22:04.920Z,23.89
2023-09-20T14:24:32.339Z,23.97
2023-09-20T14:26:59.698Z,24.21
2023-09-20T14:29:28.340Z,24.35
2023-09-20T14:31:55.625Z,24.42
2023-09-20T14:34:22.961Z,24.38
2023-09-20T14:36:50.238Z,24.33
2023-09-20T14:39:17.480Z,24.26
2023-09-20T14:41:44.798Z,24.11
2023-09-20T14:44:12.143Z,23.92
2023-09-20T14:46:40.892Z,23.72
2023-09-20T14:49:08.196Z,23.53
2023-09-20T14:51:35.511Z,23.07
2023-09-20T14:54:02.819Z,22.72
2023-09-20T14:56:30.177Z,22.55
2023-09-20T14:58:57.510Z,22.63
2023-09-20T15:01:24.808Z,22.72
2023-09-20T15:03:53.552Z,22.60
2023-09-20T15:06:22.506Z,22.32
2023-09-20T15:08:50.209Z,22.35
2023-09-20T15:11:17.745Z,22.33
2023-09-20T15:13:45.904Z,22.21
2023-09-20T15:16:14.408Z,22.32
2023-09-20T15:18:41.790Z,22.27
2023-09-20T15:21:10.589Z,22.40
2023-09-20T15:23:37.904Z,22.39
2023-09-20T15:26:11.793Z,22.01
2023-09-20T15:28:39.290Z,22.18
2023-09-20T15:31:06.914Z,22.27
2023-09-20T15:33:35.045Z,22.35
2023-09-20T15:36:03.992Z,22.28
2023-09-20T15:38:34.163Z,22.16
2023-09-20T15:41:02.291Z,22.05
2023-09-20T15:43:31.817Z,21.83
2023-09-20T15:45:59.314Z,21.82
2023-09-20T15:48:26.717Z,21.57
2023-09-20T15:50:54.136Z,21.44
2023-09-20T15:53:21.502Z,21.24
2023-09-20T15:55:50.218Z,20.96
2023-09-20T15:58:17.449Z,20.82
2023-09-20T16:00:44.687Z,20.73
2023-09-20T16:03:12.175Z,20.59
2023-09-20T16:05:39.647Z,20.42
2023-09-20T16:08:07.586Z,20.21
2023-09-20T16:10:34.842Z,20.06
2023-09-20T16:13:03.561Z,20.00
2023-09-20T16:15:30.909Z,19.87
2023-09-20T16:17:58.437Z,19.70
2023-09-20T16:20:25.909Z,19.66
2023-09-20T16:22:53.229Z,19.53
2023-09-20T16:25:20.519Z,19.44
2023-09-20T16:27:47.856Z,19.28
2023-09-20T16:30:17.572Z,19.19
2023-09-20T16:32:45.724Z,19.10
2023-09-20T16:35:13.734Z,19.04
2023-09-20T16:37:40.986Z,18.93
2023-09-20T16:40:09.365Z,18.85
2023-09-20T16:42:36.689Z,18.72
2023-09-20T16:45:04.861Z,18.60
2023-09-20T16:47:33.621Z,18.54
2023-09-20T16:50:00.912Z,18.51
2023-09-20T16:52:28.227Z,18.42
2023-09-20T16:54:55.504Z,18.33
2023-09-20T16:57:22.743Z,18.24
2023-09-20T16:59:50.057Z,18.17
2023-09-20T17:02:17.455Z,18.13
2023-09-20T17:04:46.150Z,18.04
2023-09-20T17:07:13.423Z,17.96
2023-09-20T17:09:40.707Z,17.88
2023-09-20T17:12:08.161Z,17.78
2023-09-20T17:14:35.577Z,17.65
2023-09-20T17:17:03.064Z,17.54
2023-09-20T17:19:30.511Z,17.42
2023-09-20T17:21:59.146Z,17.28
2023-09-20T17:24:26.400Z,17.15
2023-09-20T17:26:53.683Z,17.11
2023-09-20T17:29:20.986Z,17.09
2023-09-20T17:31:48.260Z,17.09
2023-09-20T17:34:15.567Z,16.99
2023-09-20T17:36:42.936Z,16.94
2023-09-20T17:39:11.658Z,17.00
2023-09-20T17:41:39.043Z,16.96
2023-09-20T17:44:06.544Z,16.87
2023-09-20T17:46:33.931Z,16.82
2023-09-20T17:49:01.223Z,16.71
2023-09-20T17:51:28.477Z,16.62
2023-09-20T17:53:55.788Z,16.60
2023-09-20T17:56:24.513Z,16.54
2023-09-20T17:58:52.058Z,16.48
2023-09-20T18:01:19.434Z,16.47
2023-09-20T18:03:47.418Z,16.44
2023-09-20T18:06:15.460Z,16.39
2023-09-20T18:08:43.767Z,16.35
2023-09-20T18:11:11.176Z,16.30
2023-09-20T18:13:40.135Z,16.29
2023-09-20T18:16:07.770Z,16.21
2023-09-20T18:18:35.246Z,16.15
2023-09-20T18:21:02.841Z,16.09
2023-09-20T18:23:30.508Z,16.04
